sensor_id;sensor_type;location;lat;lon;timestamp;temperature;humidity
2995;DHT22;35277;49.890;8.222;2023-02-14T00:00:53;22.00;65.70
2995;DHT22;35277;49.890;8.222;2023-02-14T00:03:22;22.00;65.70
2995;DHT22;35277;49.890;8.222;2023-02-14T00:05:49;22.00;65.70
2995;DHT22;35277;49.890;8.222;2023-02-14T00:08:17;22.00;65.70
2995;DHT22;35277;49.890;8.222;2023-02-14T00:10:45;22.00;65.70
2995;DHT22;35277;49.890;8.222;2023-02-14T00:13:13;22.00;65.70
2995;DHT22;35277;49.890;8.222;2023-02-14T00:15:40;22.00;65.70
2995;DHT22;35277;49.890;8.222;2023-02-14T00:18:08;22.00;65.80
2995;DHT22;35277;49.890;8.222;2023-02-14T00:20:36;22.00;65.70
2995;DHT22;35277;49.890;8.222;2023-02-14T00:23:04;22.00;65.70
2995;DHT22;35277;49.890;8.222;2023-02-14T00:25:32;22.00;65.70
2995;DHT22;35277;49.890;8.222;2023-02-14T00:28:00;22.00;65.70
2995;DHT22;35277;49.890;8.222;2023-02-14T00:30:28;22.00;65.70
2995;DHT22;35277;49.890;8.222;2023-02-14T00:32:56;22.00;65.70
2995;DHT22;35277;49.890;8.222;2023-02-14T00:35:25;22.00;65.70
2995;DHT22;35277;49.890;8.222;2023-02-14T00:37:53;22.00;65.70
2995;DHT22;35277;49.890;8.222;2023-02-14T00:40:21;22.00;65.70
2995;DHT22;35277;49.890;8.222;2023-02-14T00:42:48;22.00;65.70
2995;DHT22;35277;49.890;8.222;2023-02-14T00:45:16;22.00;65.70
2995;DHT22;35277;49.890;8.222;2023-02-14T00:47:45;22.00;65.70
2995;DHT22;35277;49.890;8.222;2023-02-14T00:50:13;22.00;65.70
2995;DHT22;35277;49.890;8.222;2023-02-14T00:52:42;22.00;65.70
2995;DHT22;35277;49.890;8.222;2023-02-14T00:55:10;22.00;65.70
2995;DHT22;35277;49.890;8.222;2023-02-14T00:57:38;22.00;65.70
2995;DHT22;35277;49.890;8.222;2023-02-14T01:00:07;22.00;65.70
2995;DHT22;35277;49.890;8.222;2023-02-14T01:02:35;22.00;65.70
2995;DHT22;35277;49.890;8.222;2023-02-14T01:05:04;22.00;65.70
2995;DHT22;35277;49.890;8.222;2023-02-14T01:07:31;22.00;65.80
2995;DHT22;35277;49.890;8.222;2023-02-14T01:10:00;22.00;65.70
2995;DHT22;35277;49.890;8.222;2023-02-14T01:12:29;22.00;65.70
2995;DHT22;35277;49.890;8.222;2023-02-14T01:14:57;22.00;65.70
2995;DHT22;35277;49.890;8.222;2023-02-14T01:17:24;22.00;65.70
2995;DHT22;35277;49.890;8.222;2023-02-14T01:19:53;22.00;65.70
2995;DHT22;35277;49.890;8.222;2023-02-14T01:22:22;22.00;65.70
2995;DHT22;35277;49.890;8.222;2023-02-14T01:24:51;22.00;65.70
2995;DHT22;35277;49.890;8.222;2023-02-14T01:27:20;22.00;65.70
2995;DHT22;35277;49.890;8.222;2023-02-14T01:29:47;22.00;65.70
2995;DHT22;35277;49.890;8.222;2023-02-14T01:32:17;22.00;65.70
2995;DHT22;35277;49.890;8.222;2023-02-14T01:34:45;22.00;65.60
2995;DHT22;35277;49.890;8.222;2023-02-14T01:37:13;22.00;65.70
2995;DHT22;35277;49.890;8.222;2023-02-14T01:39:41;22.00;65.70
2995;DHT22;35277;49.890;8.222;2023-02-14T01:42:13;22.00;65.70
2995;DHT22;35277;49.890;8.222;2023-02-14T01:44:56;22.00;65.60
2995;DHT22;35277;49.890;8.222;2023-02-14T01:47:26;22.00;65.70
2995;DHT22;35277;49.890;8.222;2023-02-14T01:49:58;22.00;65.60
2995;DHT22;35277;49.890;8.222;2023-02-14T01:52:31;22.00;65.60
2995;DHT22;35277;49.890;8.222;2023-02-14T01:55:02;22.00;65.60
2995;DHT22;35277;49.890;8.222;2023-02-14T01:57:35;22.00;65.60
2995;DHT22;35277;49.890;8.222;2023-02-14T02:00:08;22.00;65.60
2995;DHT22;35277;49.890;8.222;2023-02-14T02:02:59;22.00;65.60
2995;DHT22;35277;49.890;8.222;2023-02-14T02:05:28;22.00;65.70
2995;DHT22;35277;49.890;8.222;2023-02-14T02:07:58;22.00;65.60
2995;DHT22;35277;49.890;8.222;2023-02-14T02:10:27;22.00;65.70
2995;DHT22;35277;49.890;8.222;2023-02-14T02:12:58;22.00;65.70
2995;DHT22;35277;49.890;8.222;2023-02-14T02:15:30;22.00;65.70
2995;DHT22;35277;49.890;8.222;2023-02-14T02:18:07;22.00;65.70
2995;DHT22;35277;49.890;8.222;2023-02-14T02:21:01;22.00;65.70
2995;DHT22;35277;49.890;8.222;2023-02-14T02:23:56;22.00;65.70
2995;DHT22;35277;49.890;8.222;2023-02-14T02:27:03;22.00;65.70
2995;DHT22;35277;49.890;8.222;2023-02-14T02:30:22;22.00;65.70
2995;DHT22;35277;49.890;8.222;2023-02-14T02:36:39;22.00;65.70
2995;DHT22;35277;49.890;8.222;2023-02-14T02:39:27;22.00;65.70
2995;DHT22;35277;49.890;8.222;2023-02-14T02:42:04;22.00;65.70
2995;DHT22;35277;49.890;8.222;2023-02-14T02:44:41;22.00;65.70
2995;DHT22;35277;49.890;8.222;2023-02-14T02:47:17;22.00;65.70
2995;DHT22;35277;49.890;8.222;2023-02-14T02:49:55;22.00;65.70
2995;DHT22;35277;49.890;8.222;2023-02-14T02:52:48;22.00;65.70
2995;DHT22;35277;49.890;8.222;2023-02-14T02:55:40;22.00;65.70
2995;DHT22;35277;49.890;8.222;2023-02-14T02:58:32;22.00;65.70
2995;DHT22;35277;49.890;8.222;2023-02-14T03:01:03;22.00;65.60
2995;DHT22;35277;49.890;8.222;2023-02-14T03:03:34;22.00;65.60
2995;DHT22;35277;49.890;8.222;2023-02-14T03:06:20;22.00;65.70
2995;DHT22;35277;49.890;8.222;2023-02-14T03:08:49;22.00;65.70
2995;DHT22;35277;49.890;8.222;2023-02-14T03:11:17;22.00;65.70
2995;DHT22;35277;49.890;8.222;2023-02-14T03:13:56;22.00;65.70
2995;DHT22;35277;49.890;8.222;2023-02-14T03:16:33;22.00;65.70
2995;DHT22;35277;49.890;8.222;2023-02-14T03:19:30;22.00;65.70
2995;DHT22;35277;49.890;8.222;2023-02-14T03:22:23;22.00;65.70
2995;DHT22;35277;49.890;8.222;2023-02-14T03:25:04;22.00;65.60
2995;DHT22;35277;49.890;8.222;2023-02-14T03:27:37;22.00;65.70
2995;DHT22;35277;49.890;8.222;2023-02-14T03:30:11;22.00;65.70
2995;DHT22;35277;49.890;8.222;2023-02-14T03:32:44;22.00;65.70
2995;DHT22;35277;49.890;8.222;2023-02-14T03:35:16;22.00;65.70
2995;DHT22;35277;49.890;8.222;2023-02-14T03:37:50;22.00;65.70
2995;DHT22;35277;49.890;8.222;2023-02-14T03:40:24;22.00;65.70
2995;DHT22;35277;49.890;8.222;2023-02-14T03:42:57;22.00;65.70
2995;DHT22;35277;49.890;8.222;2023-02-14T03:45:32;22.00;65.70
2995;DHT22;35277;49.890;8.222;2023-02-14T03:48:03;22.00;65.70
2995;DHT22;35277;49.890;8.222;2023-02-14T03:50:34;22.00;65.70
2995;DHT22;35277;49.890;8.222;2023-02-14T03:53:04;22.00;65.70
2995;DHT22;35277;49.890;8.222;2023-02-14T03:55:42;22.00;65.70
2995;DHT22;35277;49.890;8.222;2023-02-14T03:58:14;22.00;65.70
2995;DHT22;35277;49.890;8.222;2023-02-14T04:00:46;22.00;65.70
2995;DHT22;35277;49.890;8.222;2023-02-14T04:03:15;22.00;65.70
2995;DHT22;35277;49.890;8.222;2023-02-14T04:05:45;22.00;65.70
2995;DHT22;35277;49.890;8.222;2023-02-14T04:08:21;22.00;65.70
2995;DHT22;35277;49.890;8.222;2023-02-14T04:10:51;22.00;65.70
2995;DHT22;35277;49.890;8.222;2023-02-14T04:13:19;22.00;65.70
2995;DHT22;35277;49.890;8.222;2023-02-14T04:15:47;22.00;65.70
2995;DHT22;35277;49.890;8.222;2023-02-14T04:18:15;22.00;65.70
2995;DHT22;35277;49.890;8.222;2023-02-14T04:21:00;22.00;65.70
2995;DHT22;35277;49.890;8.222;2023-02-14T04:23:28;22.00;65.70
2995;DHT22;35277;49.890;8.222;2023-02-14T04:25:57;22.00;65.70
2995;DHT22;35277;49.890;8.222;2023-02-14T04:28:25;22.00;65.80
2995;DHT22;35277;49.890;8.222;2023-02-14T04:30:53;22.00;65.80
2995;DHT22;35277;49.890;8.222;2023-02-14T04:33:21;22.00;65.80
2995;DHT22;35277;49.890;8.222;2023-02-14T04:35:48;22.00;65.80
2995;DHT22;35277;49.890;8.222;2023-02-14T04:38:16;22.00;65.80
2995;DHT22;35277;49.890;8.222;2023-02-14T04:40:44;22.00;65.80
2995;DHT22;35277;49.890;8.222;2023-02-14T04:43:13;22.00;65.80
2995;DHT22;35277;49.890;8.222;2023-02-14T04:45:41;22.00;65.80
2995;DHT22;35277;49.890;8.222;2023-02-14T04:48:09;22.00;65.80
2995;DHT22;35277;49.890;8.222;2023-02-14T04:50:36;22.00;65.80
2995;DHT22;35277;49.890;8.222;2023-02-14T04:53:04;22.00;65.80
2995;DHT22;35277;49.890;8.222;2023-02-14T04:55:32;22.00;65.80
2995;DHT22;35277;49.890;8.222;2023-02-14T04:58:00;22.00;65.80
2995;DHT22;35277;49.890;8.222;2023-02-14T05:00:29;22.00;65.80
2995;DHT22;35277;49.890;8.222;2023-02-14T05:02:56;22.00;65.80
2995;DHT22;35277;49.890;8.222;2023-02-14T05:05:24;22.00;65.80
2995;DHT22;35277;49.890;8.222;2023-02-14T05:07:52;22.00;65.80
2995;DHT22;35277;49.890;8.222;2023-02-14T05:10:20;22.00;65.70
2995;DHT22;35277;49.890;8.222;2023-02-14T05:12:47;22.00;65.70
2995;DHT22;35277;49.890;8.222;2023-02-14T05:15:15;22.00;65.70
2995;DHT22;35277;49.890;8.222;2023-02-14T05:17:44;22.00;65.60
2995;DHT22;35277;49.890;8.222;2023-02-14T05:20:12;22.00;65.60
2995;DHT22;35277;49.890;8.222;2023-02-14T05:22:40;22.00;65.60
2995;DHT22;35277;49.890;8.222;2023-02-14T05:25:08;21.90;65.40
2995;DHT22;35277;49.890;8.222;2023-02-14T05:27:35;21.90;65.40
2995;DHT22;35277;49.890;8.222;2023-02-14T05:30:04;21.90;65.30
2995;DHT22;35277;49.890;8.222;2023-02-14T05:32:32;21.90;65.30
2995;DHT22;35277;49.890;8.222;2023-02-14T05:35:01;21.90;65.30
2995;DHT22;35277;49.890;8.222;2023-02-14T05:37:29;21.90;65.30
2995;DHT22;35277;49.890;8.222;2023-02-14T05:39:57;21.90;65.20
2995;DHT22;35277;49.890;8.222;2023-02-14T05:42:24;21.90;65.20
2995;DHT22;35277;49.890;8.222;2023-02-14T05:44:52;21.90;65.20
2995;DHT22;35277;49.890;8.222;2023-02-14T05:47:20;21.90;65.20
2995;DHT22;35277;49.890;8.222;2023-02-14T05:49:47;21.90;65.20
2995;DHT22;35277;49.890;8.222;2023-02-14T05:52:16;21.90;65.20
2995;DHT22;35277;49.890;8.222;2023-02-14T05:54:44;21.90;65.20
2995;DHT22;35277;49.890;8.222;2023-02-14T05:57:12;21.90;65.20
2995;DHT22;35277;49.890;8.222;2023-02-14T05:59:40;21.90;65.20
2995;DHT22;35277;49.890;8.222;2023-02-14T06:02:09;21.90;65.40
2995;DHT22;35277;49.890;8.222;2023-02-14T06:04:36;21.90;65.60
2995;DHT22;35277;49.890;8.222;2023-02-14T06:07:04;21.90;65.80
2995;DHT22;35277;49.890;8.222;2023-02-14T06:09:33;21.90;65.90
2995;DHT22;35277;49.890;8.222;2023-02-14T06:12:01;21.90;66.00
2995;DHT22;35277;49.890;8.222;2023-02-14T06:14:29;21.90;65.90
2995;DHT22;35277;49.890;8.222;2023-02-14T06:16:57;21.90;65.80
2995;DHT22;35277;49.890;8.222;2023-02-14T06:19:24;21.90;65.80
2995;DHT22;35277;49.890;8.222;2023-02-14T06:21:52;22.00;65.80
2995;DHT22;35277;49.890;8.222;2023-02-14T06:24:20;22.00;65.80
2995;DHT22;35277;49.890;8.222;2023-02-14T06:26:49;22.00;65.80
2995;DHT22;35277;49.890;8.222;2023-02-14T06:29:17;22.00;65.80
2995;DHT22;35277;49.890;8.222;2023-02-14T06:31:45;22.00;65.80
2995;DHT22;35277;49.890;8.222;2023-02-14T06:34:13;22.00;65.80
2995;DHT22;35277;49.890;8.222;2023-02-14T06:36:41;22.00;65.90
2995;DHT22;35277;49.890;8.222;2023-02-14T06:39:09;22.00;65.90
2995;DHT22;35277;49.890;8.222;2023-02-14T06:41:37;22.00;65.90
2995;DHT22;35277;49.890;8.222;2023-02-14T06:44:06;22.00;65.90
2995;DHT22;35277;49.890;8.222;2023-02-14T06:46:35;22.00;65.90
2995;DHT22;35277;49.890;8.222;2023-02-14T06:49:03;22.00;65.90
2995;DHT22;35277;49.890;8.222;2023-02-14T06:51:31;22.00;65.90
2995;DHT22;35277;49.890;8.222;2023-02-14T06:53:59;22.00;65.90
2995;DHT22;35277;49.890;8.222;2023-02-14T06:56:26;22.00;65.90
2995;DHT22;35277;49.890;8.222;2023-02-14T06:58:54;22.00;65.80
2995;DHT22;35277;49.890;8.222;2023-02-14T07:01:23;22.00;65.70
2995;DHT22;35277;49.890;8.222;2023-02-14T07:03:51;22.00;65.70
2995;DHT22;35277;49.890;8.222;2023-02-14T07:06:19;22.00;65.60
2995;DHT22;35277;49.890;8.222;2023-02-14T07:08:46;22.00;65.60
2995;DHT22;35277;49.890;8.222;2023-02-14T07:11:14;22.00;65.60
2995;DHT22;35277;49.890;8.222;2023-02-14T07:13:42;22.00;65.50
2995;DHT22;35277;49.890;8.222;2023-02-14T07:16:10;22.00;65.50
2995;DHT22;35277;49.890;8.222;2023-02-14T07:18:39;22.00;65.40
2995;DHT22;35277;49.890;8.222;2023-02-14T07:21:07;22.00;65.40
2995;DHT22;35277;49.890;8.222;2023-02-14T07:23:34;22.00;65.30
2995;DHT22;35277;49.890;8.222;2023-02-14T07:26:02;22.00;65.30
2995;DHT22;35277;49.890;8.222;2023-02-14T07:28:30;22.00;65.20
2995;DHT22;35277;49.890;8.222;2023-02-14T07:30:59;22.00;65.20
2995;DHT22;35277;49.890;8.222;2023-02-14T07:33:27;22.00;65.10
2995;DHT22;35277;49.890;8.222;2023-02-14T07:35:56;22.00;65.10
2995;DHT22;35277;49.890;8.222;2023-02-14T07:38:24;22.00;65.10
2995;DHT22;35277;49.890;8.222;2023-02-14T07:40:55;22.00;65.00
2995;DHT22;35277;49.890;8.222;2023-02-14T07:43:24;22.00;64.90
2995;DHT22;35277;49.890;8.222;2023-02-14T07:45:52;22.00;64.90
2995;DHT22;35277;49.890;8.222;2023-02-14T07:48:21;22.00;64.80
2995;DHT22;35277;49.890;8.222;2023-02-14T07:50:48;22.00;64.80
2995;DHT22;35277;49.890;8.222;2023-02-14T07:53:17;22.00;64.70
2995;DHT22;35277;49.890;8.222;2023-02-14T07:55:48;22.00;64.60
2995;DHT22;35277;49.890;8.222;2023-02-14T07:58:16;22.00;64.50
2995;DHT22;35277;49.890;8.222;2023-02-14T08:00:44;22.00;64.50
2995;DHT22;35277;49.890;8.222;2023-02-14T08:03:12;21.90;64.30
2995;DHT22;35277;49.890;8.222;2023-02-14T08:05:40;21.90;64.30
2995;DHT22;35277;49.890;8.222;2023-02-14T08:08:08;21.90;64.20
2995;DHT22;35277;49.890;8.222;2023-02-14T08:10:37;21.90;64.10
2995;DHT22;35277;49.890;8.222;2023-02-14T08:13:05;21.90;64.10
2995;DHT22;35277;49.890;8.222;2023-02-14T08:15:33;21.90;64.00
2995;DHT22;35277;49.890;8.222;2023-02-14T08:18:20;21.90;64.00
2995;DHT22;35277;49.890;8.222;2023-02-14T08:20:48;21.90;63.90
2995;DHT22;35277;49.890;8.222;2023-02-14T08:23:17;21.90;63.90
2995;DHT22;35277;49.890;8.222;2023-02-14T08:25:46;21.90;63.90
2995;DHT22;35277;49.890;8.222;2023-02-14T08:28:14;21.90;63.90
2995;DHT22;35277;49.890;8.222;2023-02-14T08:30:43;21.90;63.80
2995;DHT22;35277;49.890;8.222;2023-02-14T08:33:11;21.90;63.80
2995;DHT22;35277;49.890;8.222;2023-02-14T08:35:39;21.90;63.80
2995;DHT22;35277;49.890;8.222;2023-02-14T08:38:07;21.90;63.80
2995;DHT22;35277;49.890;8.222;2023-02-14T08:40:35;21.90;63.70
2995;DHT22;35277;49.890;8.222;2023-02-14T08:43:05;21.90;63.70
2995;DHT22;35277;49.890;8.222;2023-02-14T08:45:33;21.90;63.70
2995;DHT22;35277;49.890;8.222;2023-02-14T08:48:02;21.90;63.70
2995;DHT22;35277;49.890;8.222;2023-02-14T08:50:31;21.90;63.60
2995;DHT22;35277;49.890;8.222;2023-02-14T08:52:59;21.90;63.60
2995;DHT22;35277;49.890;8.222;2023-02-14T08:55:27;21.90;63.60
2995;DHT22;35277;49.890;8.222;2023-02-14T08:57:55;22.00;63.70
2995;DHT22;35277;49.890;8.222;2023-02-14T09:00:25;22.00;63.70
2995;DHT22;35277;49.890;8.222;2023-02-14T09:02:53;22.00;63.60
2995;DHT22;35277;49.890;8.222;2023-02-14T09:05:21;21.90;63.50
2995;DHT22;35277;49.890;8.222;2023-02-14T09:07:49;22.00;63.60
2995;DHT22;35277;49.890;8.222;2023-02-14T09:10:18;22.00;63.60
2995;DHT22;35277;49.890;8.222;2023-02-14T09:12:46;22.00;63.50
2995;DHT22;35277;49.890;8.222;2023-02-14T09:15:13;22.00;63.50
2995;DHT22;35277;49.890;8.222;2023-02-14T09:17:42;22.00;63.50
2995;DHT22;35277;49.890;8.222;2023-02-14T09:20:12;22.00;63.50
2995;DHT22;35277;49.890;8.222;2023-02-14T09:22:40;22.00;63.50
2995;DHT22;35277;49.890;8.222;2023-02-14T09:25:09;22.00;63.50
2995;DHT22;35277;49.890;8.222;2023-02-14T09:27:37;22.00;63.50
2995;DHT22;35277;49.890;8.222;2023-02-14T09:30:06;22.00;63.40
2995;DHT22;35277;49.890;8.222;2023-02-14T09:32:35;22.00;63.50
2995;DHT22;35277;49.890;8.222;2023-02-14T09:35:04;22.00;63.40
2995;DHT22;35277;49.890;8.222;2023-02-14T09:37:50;22.00;63.40
2995;DHT22;35277;49.890;8.222;2023-02-14T09:40:35;22.00;63.30
2995;DHT22;35277;49.890;8.222;2023-02-14T09:43:07;22.00;63.30
2995;DHT22;35277;49.890;8.222;2023-02-14T09:45:37;22.00;63.30
2995;DHT22;35277;49.890;8.222;2023-02-14T09:48:08;22.00;63.40
2995;DHT22;35277;49.890;8.222;2023-02-14T09:50:44;22.00;63.30
2995;DHT22;35277;49.890;8.222;2023-02-14T09:53:19;22.00;63.30
2995;DHT22;35277;49.890;8.222;2023-02-14T09:55:53;22.00;63.30
2995;DHT22;35277;49.890;8.222;2023-02-14T09:58:28;22.00;63.30
2995;DHT22;35277;49.890;8.222;2023-02-14T10:01:01;22.00;63.20
2995;DHT22;35277;49.890;8.222;2023-02-14T10:03:44;22.00;63.20
2995;DHT22;35277;49.890;8.222;2023-02-14T10:06:25;22.00;63.20
2995;DHT22;35277;49.890;8.222;2023-02-14T10:09:04;22.00;63.20
2995;DHT22;35277;49.890;8.222;2023-02-14T10:11:35;22.00;63.20
2995;DHT22;35277;49.890;8.222;2023-02-14T10:14:07;22.00;63.10
2995;DHT22;35277;49.890;8.222;2023-02-14T10:16:41;22.00;63.10
2995;DHT22;35277;49.890;8.222;2023-02-14T10:19:17;22.00;63.10
2995;DHT22;35277;49.890;8.222;2023-02-14T10:21:51;22.00;63.00
2995;DHT22;35277;49.890;8.222;2023-02-14T10:24:25;22.00;63.00
2995;DHT22;35277;49.890;8.222;2023-02-14T10:26:56;22.00;63.00
2995;DHT22;35277;49.890;8.222;2023-02-14T10:29:26;22.00;62.90
2995;DHT22;35277;49.890;8.222;2023-02-14T10:31:57;22.00;62.90
2995;DHT22;35277;49.890;8.222;2023-02-14T10:34:32;22.00;62.90
2995;DHT22;35277;49.890;8.222;2023-02-14T10:37:15;22.00;62.80
2995;DHT22;35277;49.890;8.222;2023-02-14T10:40:04;22.00;62.80
2995;DHT22;35277;49.890;8.222;2023-02-14T10:42:44;22.00;62.80
2995;DHT22;35277;49.890;8.222;2023-02-14T10:45:21;22.00;62.70
2995;DHT22;35277;49.890;8.222;2023-02-14T10:47:58;22.00;62.70
2995;DHT22;35277;49.890;8.222;2023-02-14T10:50:32;22.00;62.80
2995;DHT22;35277;49.890;8.222;2023-02-14T10:53:12;22.00;62.90
2995;DHT22;35277;49.890;8.222;2023-02-14T10:55:48;22.00;63.30
2995;DHT22;35277;49.890;8.222;2023-02-14T10:58:20;21.90;63.70
2995;DHT22;35277;49.890;8.222;2023-02-14T11:00:53;22.00;64.00
2995;DHT22;35277;49.890;8.222;2023-02-14T11:03:22;22.00;64.50
2995;DHT22;35277;49.890;8.222;2023-02-14T11:05:50;22.00;65.10
2995;DHT22;35277;49.890;8.222;2023-02-14T11:08:24;22.00;65.40
2995;DHT22;35277;49.890;8.222;2023-02-14T11:10:54;22.00;65.50
2995;DHT22;35277;49.890;8.222;2023-02-14T11:13:33;22.00;65.50
2995;DHT22;35277;49.890;8.222;2023-02-14T11:16:03;22.00;65.50
2995;DHT22;35277;49.890;8.222;2023-02-14T11:18:32;22.10;65.70
2995;DHT22;35277;49.890;8.222;2023-02-14T11:21:05;22.10;65.60
2995;DHT22;35277;49.890;8.222;2023-02-14T11:23:37;22.10;65.50
2995;DHT22;35277;49.890;8.222;2023-02-14T11:26:10;22.10;65.40
2995;DHT22;35277;49.890;8.222;2023-02-14T11:28:48;22.00;64.80
2995;DHT22;35277;49.890;8.222;2023-02-14T11:31:24;22.00;64.50
2995;DHT22;35277;49.890;8.222;2023-02-14T11:33:53;22.00;64.30
2995;DHT22;35277;49.890;8.222;2023-02-14T11:36:21;21.90;64.00
2995;DHT22;35277;49.890;8.222;2023-02-14T11:38:57;21.90;63.90
2995;DHT22;35277;49.890;8.222;2023-02-14T11:41:45;21.90;63.70
2995;DHT22;35277;49.890;8.222;2023-02-14T11:44:21;21.80;63.60
2995;DHT22;35277;49.890;8.222;2023-02-14T11:46:49;21.80;63.40
2995;DHT22;35277;49.890;8.222;2023-02-14T11:49:28;21.80;63.20
2995;DHT22;35277;49.890;8.222;2023-02-14T11:51:57;21.80;63.20
2995;DHT22;35277;49.890;8.222;2023-02-14T11:54:31;21.90;63.20
2995;DHT22;35277;49.890;8.222;2023-02-14T11:57:05;21.80;63.00
2995;DHT22;35277;49.890;8.222;2023-02-14T11:59:36;21.80;63.00
2995;DHT22;35277;49.890;8.222;2023-02-14T12:02:16;21.80;63.00
2995;DHT22;35277;49.890;8.222;2023-02-14T12:04:46;21.90;63.00
2995;DHT22;35277;49.890;8.222;2023-02-14T12:07:18;21.80;62.90
2995;DHT22;35277;49.890;8.222;2023-02-14T12:10:08;21.80;62.90
2995;DHT22;35277;49.890;8.222;2023-02-14T12:12:48;21.80;63.00
2995;DHT22;35277;49.890;8.222;2023-02-14T12:15:32;21.80;62.90
2995;DHT22;35277;49.890;8.222;2023-02-14T12:18:27;21.80;62.90
2995;DHT22;35277;49.890;8.222;2023-02-14T12:20:59;21.80;62.90
2995;DHT22;35277;49.890;8.222;2023-02-14T12:23:35;21.80;62.90
2995;DHT22;35277;49.890;8.222;2023-02-14T12:26:15;21.80;62.80
2995;DHT22;35277;49.890;8.222;2023-02-14T12:28:51;21.80;62.80
2995;DHT22;35277;49.890;8.222;2023-02-14T12:31:23;21.80;62.80
2995;DHT22;35277;49.890;8.222;2023-02-14T12:33:51;21.80;62.80
2995;DHT22;35277;49.890;8.222;2023-02-14T12:36:32;21.80;62.70
2995;DHT22;35277;49.890;8.222;2023-02-14T12:39:10;21.90;63.60
2995;DHT22;35277;49.890;8.222;2023-02-14T12:41:46;21.90;62.70
2995;DHT22;35277;49.890;8.222;2023-02-14T12:44:22;21.90;62.70
2995;DHT22;35277;49.890;8.222;2023-02-14T12:47:12;21.90;62.70
2995;DHT22;35277;49.890;8.222;2023-02-14T12:50:02;21.90;62.70
2995;DHT22;35277;49.890;8.222;2023-02-14T12:52:46;21.90;62.60
2995;DHT22;35277;49.890;8.222;2023-02-14T12:55:33;21.90;62.60
2995;DHT22;35277;49.890;8.222;2023-02-14T12:58:15;21.90;62.50
2995;DHT22;35277;49.890;8.222;2023-02-14T13:00:52;21.90;62.50
2995;DHT22;35277;49.890;8.222;2023-02-14T13:03:34;21.90;62.50
2995;DHT22;35277;49.890;8.222;2023-02-14T13:06:09;21.90;62.50
2995;DHT22;35277;49.890;8.222;2023-02-14T13:08:57;21.90;62.50
2995;DHT22;35277;49.890;8.222;2023-02-14T13:11:35;21.90;62.50
2995;DHT22;35277;49.890;8.222;2023-02-14T13:14:19;21.90;62.40
2995;DHT22;35277;49.890;8.222;2023-02-14T13:16:53;21.90;62.40
2995;DHT22;35277;49.890;8.222;2023-02-14T13:19:31;21.90;62.40
2995;DHT22;35277;49.890;8.222;2023-02-14T13:22:04;21.90;62.50
2995;DHT22;35277;49.890;8.222;2023-02-14T13:24:38;21.90;62.40
2995;DHT22;35277;49.890;8.222;2023-02-14T13:27:11;21.90;62.50
2995;DHT22;35277;49.890;8.222;2023-02-14T13:29:44;21.90;62.40
2995;DHT22;35277;49.890;8.222;2023-02-14T13:32:17;21.90;62.40
2995;DHT22;35277;49.890;8.222;2023-02-14T13:34:47;21.90;62.40
2995;DHT22;35277;49.890;8.222;2023-02-14T13:37:18;21.90;62.40
2995;DHT22;35277;49.890;8.222;2023-02-14T13:39:48;21.90;62.40
2995;DHT22;35277;49.890;8.222;2023-02-14T13:42:49;21.90;62.40
2995;DHT22;35277;49.890;8.222;2023-02-14T13:45:50;21.90;62.40
2995;DHT22;35277;49.890;8.222;2023-02-14T13:48:21;21.90;62.40
2995;DHT22;35277;49.890;8.222;2023-02-14T13:50:51;21.90;62.40
2995;DHT22;35277;49.890;8.222;2023-02-14T13:53:44;21.90;62.30
2995;DHT22;35277;49.890;8.222;2023-02-14T13:56:39;22.00;62.40
2995;DHT22;35277;49.890;8.222;2023-02-14T13:59:24;22.00;62.40
2995;DHT22;35277;49.890;8.222;2023-02-14T14:01:54;21.90;62.30
2995;DHT22;35277;49.890;8.222;2023-02-14T14:04:36;21.90;62.30
2995;DHT22;35277;49.890;8.222;2023-02-14T14:07:22;21.90;62.20
2995;DHT22;35277;49.890;8.222;2023-02-14T14:09:57;22.00;62.40
2995;DHT22;35277;49.890;8.222;2023-02-14T14:12:42;21.90;62.20
2995;DHT22;35277;49.890;8.222;2023-02-14T14:15:17;21.90;62.20
2995;DHT22;35277;49.890;8.222;2023-02-14T14:20:40;21.90;62.10
2995;DHT22;35277;49.890;8.222;2023-02-14T14:23:31;21.90;62.10
2995;DHT22;35277;49.890;8.222;2023-02-14T14:26:00;21.90;62.10
2995;DHT22;35277;49.890;8.222;2023-02-14T14:28:30;21.90;62.10
2995;DHT22;35277;49.890;8.222;2023-02-14T14:30:59;21.90;62.00
2995;DHT22;35277;49.890;8.222;2023-02-14T14:33:29;21.90;62.00
2995;DHT22;35277;49.890;8.222;2023-02-14T14:35:59;21.90;62.10
2995;DHT22;35277;49.890;8.222;2023-02-14T14:38:29;21.90;62.10
2995;DHT22;35277;49.890;8.222;2023-02-14T14:40:58;21.90;62.10
2995;DHT22;35277;49.890;8.222;2023-02-14T14:43:28;21.90;62.10
2995;DHT22;35277;49.890;8.222;2023-02-14T14:45:58;21.90;62.00
2995;DHT22;35277;49.890;8.222;2023-02-14T14:48:32;21.90;61.90
2995;DHT22;35277;49.890;8.222;2023-02-14T14:51:05;21.90;61.80
2995;DHT22;35277;49.890;8.222;2023-02-14T14:53:39;21.90;61.80
2995;DHT22;35277;49.890;8.222;2023-02-14T14:56:11;21.90;61.70
2995;DHT22;35277;49.890;8.222;2023-02-14T14:58:40;21.90;61.70
2995;DHT22;35277;49.890;8.222;2023-02-14T15:01:11;21.80;61.60
2995;DHT22;35277;49.890;8.222;2023-02-14T15:03:42;21.90;61.60
2995;DHT22;35277;49.890;8.222;2023-02-14T15:06:16;21.80;61.50
2995;DHT22;35277;49.890;8.222;2023-02-14T15:08:46;21.80;61.40
2995;DHT22;35277;49.890;8.222;2023-02-14T15:11:17;21.80;61.30
2995;DHT22;35277;49.890;8.222;2023-02-14T15:14:00;21.80;61.30
2995;DHT22;35277;49.890;8.222;2023-02-14T15:16:35;21.80;61.30
2995;DHT22;35277;49.890;8.222;2023-02-14T15:19:09;21.80;61.30
2995;DHT22;35277;49.890;8.222;2023-02-14T15:21:39;21.80;61.40
2995;DHT22;35277;49.890;8.222;2023-02-14T15:24:13;21.80;61.40
2995;DHT22;35277;49.890;8.222;2023-02-14T15:26:43;21.80;61.40
2995;DHT22;35277;49.890;8.222;2023-02-14T15:29:19;21.80;61.50
2995;DHT22;35277;49.890;8.222;2023-02-14T15:31:48;21.80;61.50
2995;DHT22;35277;49.890;8.222;2023-02-14T15:34:21;21.90;61.60
2995;DHT22;35277;49.890;8.222;2023-02-14T15:36:50;21.90;61.60
2995;DHT22;35277;49.890;8.222;2023-02-14T15:39:22;21.90;61.70
2995;DHT22;35277;49.890;8.222;2023-02-14T15:41:53;21.90;61.70
2995;DHT22;35277;49.890;8.222;2023-02-14T15:44:24;21.90;61.70
2995;DHT22;35277;49.890;8.222;2023-02-14T15:46:56;21.90;61.70
2995;DHT22;35277;49.890;8.222;2023-02-14T15:49:31;21.90;61.70
2995;DHT22;35277;49.890;8.222;2023-02-14T15:52:00;21.90;61.80
2995;DHT22;35277;49.890;8.222;2023-02-14T15:54:32;21.90;61.90
2995;DHT22;35277;49.890;8.222;2023-02-14T15:57:02;21.90;61.90
2995;DHT22;35277;49.890;8.222;2023-02-14T15:59:32;21.90;61.90
2995;DHT22;35277;49.890;8.222;2023-02-14T16:02:12;21.90;61.90
2995;DHT22;35277;49.890;8.222;2023-02-14T16:04:44;21.90;61.90
2995;DHT22;35277;49.890;8.222;2023-02-14T16:07:22;21.90;61.90
2995;DHT22;35277;49.890;8.222;2023-02-14T16:10:12;21.90;61.90
2995;DHT22;35277;49.890;8.222;2023-02-14T16:12:39;22.00;62.10
2995;DHT22;35277;49.890;8.222;2023-02-14T16:15:17;21.90;62.10
2995;DHT22;35277;49.890;8.222;2023-02-14T16:17:46;21.90;62.10
2995;DHT22;35277;49.890;8.222;2023-02-14T16:20:37;21.90;62.00
2995;DHT22;35277;49.890;8.222;2023-02-14T16:23:23;21.90;62.10
2995;DHT22;35277;49.890;8.222;2023-02-14T16:25:52;21.90;62.10